Weather History for Lancaster, TX

Change the Weather History Date:

Sunday, October 21, 2012

  Actual Average (KRBD) Record (KRBD)
Temperature  
Mean Temperature 80 °F -  
Max Temperature 87 °F 74 °F 90 °F (2012)
Min Temperature 73 °F 54 °F 48 °F (2006)
Cooling Degree Days 15    
Growing Degree Days 30 (Base 50)    
Moisture  
Dew Point 68 °F    
Average Humidity 72    
Maximum Humidity 88    
Minimum Humidity 46    
Precipitation  
Precipitation 0.00 in - - ()
Sea Level Pressure  
Sea Level Pressure 29.86 in    
Wind  
Wind Speed 13 mph (South)    
Max Wind Speed 21 mph    
Max Gust Speed 28 mph    
Visibility 10 miles    
Events      
Averages and records for this station are not official NWS values.
T = Trace of Precipitation, MM = Missing Value Source: NWS Daily Summary

Daily Weather History Graph

Daily Weather History Graph

Search for Another Location

Airport:

Trip Planner

Search our weather history database for the weather conditions in past years. The results will help you decide how hot, cold, wet, or windy it might be!

Date:

Astronomy

Oct. 21, 2012 Rise Set
Actual Time 7:35 AM CDT 6:46 PM CDT
Civil Twilight 7:10 AM CDT 7:11 PM CDT
Nautical Twilight 6:42 AM CDT 7:40 PM CDT
Astronomical Twilight 6:13 AM CDT 8:08 PM CDT
Moon 1:51 PM CDT (10/21) No Moon Set
Length of Visible Light 12h 00m
Length of Day
11h 10m
Waxing Crescent, 45% of the Moon is Illuminated
Oct 21
Waxing Crescent
Oct 21
First Quarter
Oct 29
Full
Nov 6
Last Quarter
Nov 13
New

Hourly Weather History & Observations

Time (CDT) Temp. Heat Index Dew Point Humidity Pressure Visibility Wind Dir Wind Speed Gust Speed Precip Events Conditions
12:15 AM 73.4 °F - 68.0 °F 83% 29.81 in 10.0 mi South 13.8 mph 20.7 mph N/A   Mostly Cloudy
12:35 AM 75.2 °F - 69.8 °F 83% 29.81 in 10.0 mi South 13.8 mph 21.9 mph N/A   Overcast
12:55 AM 75.2 °F - 69.8 °F 83% 29.81 in 10.0 mi South 16.1 mph 25.3 mph N/A   Overcast
1:15 AM 75.2 °F - 69.8 °F 83% 29.81 in 10.0 mi South 18.4 mph 25.3 mph N/A   Overcast
1:35 AM 75.2 °F - 69.8 °F 83% 29.82 in 10.0 mi South 15.0 mph 24.2 mph N/A   Overcast
1:55 AM 75.2 °F - 69.8 °F 83% 29.82 in 10.0 mi South 15.0 mph 24.2 mph N/A   Overcast
2:15 AM 75.2 °F - 69.8 °F 83% 29.82 in 10.0 mi South 12.7 mph 25.3 mph N/A   Overcast
2:35 AM 75.2 °F - 69.8 °F 83% 29.82 in 10.0 mi South 11.5 mph 16.1 mph N/A   Overcast
2:55 AM 75.2 °F - 69.8 °F 83% 29.83 in 10.0 mi South 12.7 mph 18.4 mph N/A   Overcast
3:15 AM 73.4 °F - 69.8 °F 88% 29.83 in 10.0 mi South 11.5 mph 17.3 mph N/A   Overcast
3:35 AM 73.4 °F - 69.8 °F 88% 29.83 in 10.0 mi South 11.5 mph - N/A   Overcast
3:55 AM 73.4 °F - 69.8 °F 88% 29.82 in 10.0 mi South 10.4 mph - N/A   Overcast
4:15 AM 73.4 °F - 69.8 °F 88% 29.82 in 10.0 mi South 11.5 mph - N/A   Overcast
4:35 AM 73.4 °F - 69.8 °F 88% 29.82 in 10.0 mi South 9.2 mph - N/A   Overcast
4:55 AM 73.4 °F - 69.8 °F 88% 29.83 in 10.0 mi South 10.4 mph - N/A   Overcast
5:15 AM 73.4 °F - 69.8 °F 88% 29.83 in 10.0 mi South 10.4 mph - N/A   Overcast
5:35 AM 73.4 °F - 69.8 °F 88% 29.84 in 10.0 mi South 9.2 mph - N/A   Overcast
5:55 AM 73.4 °F - 69.8 °F 88% 29.84 in 10.0 mi South 9.2 mph - N/A   Overcast
6:15 AM 73.4 °F - 69.8 °F 88% 29.85 in 10.0 mi South 8.1 mph - N/A   Overcast
6:35 AM 73.4 °F - 69.8 °F 88% 29.85 in 10.0 mi South 9.2 mph - N/A   Overcast
6:55 AM 73.4 °F - 69.8 °F 88% 29.86 in 10.0 mi South 6.9 mph - N/A   Overcast
7:15 AM 73.4 °F - 69.8 °F 88% 29.86 in 10.0 mi South 11.5 mph - N/A   Overcast
7:35 AM 73.4 °F - 69.8 °F 88% 29.87 in 10.0 mi South 9.2 mph 19.6 mph N/A   Overcast
7:55 AM 73.4 °F - 69.8 °F 88% 29.87 in 10.0 mi South 8.1 mph 20.7 mph N/A   Overcast
8:15 AM 73.4 °F - 69.8 °F 88% 29.88 in 10.0 mi South 10.4 mph 17.3 mph N/A   Mostly Cloudy
8:35 AM 73.4 °F - 69.8 °F 88% 29.88 in 10.0 mi South 8.1 mph 16.1 mph N/A   Mostly Cloudy
8:55 AM 73.4 °F - 69.8 °F 88% 29.89 in 10.0 mi South 8.1 mph - N/A   Mostly Cloudy
9:15 AM 73.4 °F - 69.8 °F 88% 29.90 in 10.0 mi South 12.7 mph 17.3 mph N/A   Overcast
9:35 AM 73.4 °F - 69.8 °F 88% 29.91 in 10.0 mi South 10.4 mph 17.3 mph N/A   Overcast
9:55 AM 75.2 °F - 69.8 °F 83% 29.91 in 10.0 mi South 16.1 mph 20.7 mph N/A   Overcast
10:15 AM 77.0 °F - 69.8 °F 78% 29.92 in 10.0 mi South 15.0 mph 21.9 mph N/A   Overcast
10:35 AM 77.0 °F - 69.8 °F 78% 29.92 in 10.0 mi South 16.1 mph 21.9 mph N/A   Mostly Cloudy
10:55 AM 78.8 °F - 69.8 °F 74% 29.92 in 10.0 mi South 13.8 mph 23.0 mph N/A   Mostly Cloudy
11:15 AM 78.8 °F - 68.0 °F 69% 29.92 in 10.0 mi South 20.7 mph 26.5 mph N/A   Mostly Cloudy
11:35 AM 80.6 °F 83.9 °F 69.8 °F 70% 29.91 in 10.0 mi SSW 16.1 mph 25.3 mph N/A   Overcast
11:55 AM 78.8 °F - 68.0 °F 69% 29.91 in 10.0 mi SSW 17.3 mph 26.5 mph N/A   Overcast
12:15 PM 80.6 °F 83.2 °F 68.0 °F 65% 29.91 in 10.0 mi SSW 15.0 mph 21.9 mph N/A   Overcast
12:35 PM 80.6 °F 83.2 °F 68.0 °F 65% 29.91 in 10.0 mi South 19.6 mph 26.5 mph N/A   Overcast
12:55 PM 80.6 °F 83.2 °F 68.0 °F 65% 29.90 in 10.0 mi South 16.1 mph 24.2 mph N/A   Overcast
1:15 PM 82.4 °F 86.3 °F 69.8 °F 66% 29.89 in 10.0 mi South 17.3 mph 26.5 mph N/A   Overcast
1:35 PM 82.4 °F 85.4 °F 68.0 °F 62% 29.88 in 10.0 mi South 20.7 mph 25.3 mph N/A   Mostly Cloudy
1:55 PM 82.4 °F 85.4 °F 68.0 °F 62% 29.87 in 10.0 mi South 17.3 mph 24.2 mph N/A   Mostly Cloudy
2:15 PM 84.2 °F 87.3 °F 68.0 °F 58% 29.86 in 10.0 mi South 18.4 mph 25.3 mph N/A   Mostly Cloudy
2:35 PM 86.0 °F 89.4 °F 68.0 °F 55% 29.84 in 10.0 mi South 15.0 mph 25.3 mph N/A   Scattered Clouds
2:55 PM 86.0 °F 89.4 °F 68.0 °F 55% 29.84 in 10.0 mi South 17.3 mph 27.6 mph N/A   Scattered Clouds
3:15 PM 86.0 °F 89.4 °F 68.0 °F 55% 29.83 in 10.0 mi South 13.8 mph 26.5 mph N/A   Scattered Clouds
3:35 PM 87.8 °F 90.4 °F 66.2 °F 49% 29.83 in 10.0 mi South 17.3 mph 25.3 mph N/A   Scattered Clouds
3:55 PM 86.0 °F 88.2 °F 66.2 °F 51% 29.84 in 10.0 mi South 17.3 mph 27.6 mph N/A   Scattered Clouds
4:15 PM 87.8 °F 90.4 °F 66.2 °F 49% 29.84 in 10.0 mi South 17.3 mph 23.0 mph N/A   Scattered Clouds
4:35 PM 86.0 °F 87.3 °F 64.4 °F 48% 29.84 in 10.0 mi South 18.4 mph 21.9 mph N/A   Scattered Clouds
4:55 PM 87.8 °F 89.4 °F 64.4 °F 46% 29.84 in 10.0 mi South 18.4 mph 25.3 mph N/A   Scattered Clouds
5:15 PM 86.0 °F 87.3 °F 64.4 °F 48% 29.84 in 10.0 mi South 11.5 mph 21.9 mph N/A   Scattered Clouds
5:35 PM 86.0 °F 87.3 °F 64.4 °F 48% 29.84 in 10.0 mi South 13.8 mph 23.0 mph N/A   Scattered Clouds
5:55 PM 86.0 °F 87.3 °F 64.4 °F 48% 29.84 in 10.0 mi South 16.1 mph 23.0 mph N/A   Clear
6:15 PM 84.2 °F 85.6 °F 64.4 °F 51% 29.84 in 10.0 mi South 13.8 mph 23.0 mph N/A   Clear
6:35 PM 82.4 °F 83.9 °F 64.4 °F 54% 29.84 in 10.0 mi SSE 12.7 mph 17.3 mph N/A   Clear
6:55 PM 82.4 °F 84.6 °F 66.2 °F 58% 29.85 in 10.0 mi SSE 11.5 mph 17.3 mph N/A   Clear
7:15 PM 80.6 °F 82.7 °F 66.2 °F 61% 29.85 in 10.0 mi SSE 13.8 mph 18.4 mph N/A   Clear
7:35 PM 80.6 °F 82.7 °F 66.2 °F 61% 29.86 in 10.0 mi SSE 12.7 mph 16.1 mph N/A   Clear
7:55 PM 80.6 °F 82.7 °F 66.2 °F 61% 29.87 in 10.0 mi SSE 9.2 mph - N/A   Clear
8:15 PM 80.6 °F 82.7 °F 66.2 °F 61% 29.87 in 10.0 mi South 10.4 mph 16.1 mph N/A   Clear
8:35 PM 78.8 °F - 66.2 °F 65% 29.87 in 10.0 mi SSE 11.5 mph 16.1 mph N/A   Clear
8:55 PM 78.8 °F - 66.2 °F 65% 29.88 in 10.0 mi SSE 11.5 mph 16.1 mph N/A   Clear
9:15 PM 78.8 °F - 66.2 °F 65% 29.88 in 10.0 mi South 11.5 mph 18.4 mph N/A   Clear
9:35 PM 78.8 °F - 66.2 °F 65% 29.89 in 10.0 mi South 13.8 mph 19.6 mph N/A   Clear
9:55 PM 78.8 °F - 66.2 °F 65% 29.89 in 10.0 mi South 15.0 mph - N/A   Clear
10:15 PM 78.8 °F - 68.0 °F 69% 29.90 in 10.0 mi South 12.7 mph 19.6 mph N/A   Clear
10:35 PM 78.8 °F - 68.0 °F 69% 29.90 in 10.0 mi South 12.7 mph 18.4 mph N/A   Clear
10:55 PM 77.0 °F - 68.0 °F 74% 29.91 in 10.0 mi South 10.4 mph 18.4 mph N/A   Clear
11:15 PM 77.0 °F - 68.0 °F 74% 29.92 in 10.0 mi South 9.2 mph - N/A   Clear
11:35 PM 77.0 °F - 68.0 °F 74% 29.92 in 10.0 mi SSE 8.1 mph - N/A   Clear
11:55 PM 75.2 °F - 68.0 °F 78% 29.92 in 10.0 mi South 9.2 mph 16.1 mph N/A   Clear